Time;durP1;ratioP1;P1;durP2;ratioP2;P2;SDS_P1;SDS_P2;PMS_P1;PMS_P2;Temp;Humidity;BMP_temperature;BMP_pressure;BME280_temperature;BME280_humidity;BME280_pressure;Samples;Min_cycle;Max_cycle;Signal;HPM_P1;HPM_P2
2021/09/16 00:02:18;;;;;;;4.53;3.60;;;22.70;82.90;;;;;;5176123;28;20085;-77
2021/09/16 00:04:50;;;;;;;5.30;3.20;;;22.70;82.90;;;;;;5170920;28;20057;-75
2021/09/16 00:07:22;;;;;;;4.22;2.92;;;22.70;82.90;;;;;;5170336;28;20057;-76
2021/09/16 00:09:55;;;;;;;3.63;3.25;;;22.70;82.90;;;;;;5168808;28;20034;-76
2021/09/16 00:12:28;;;;;;;4.80;2.92;;;22.70;82.90;;;;;;5170528;28;20065;-76
2021/09/16 00:15:00;;;;;;;7.32;3.05;;;22.70;82.90;;;;;;5169187;28;20045;-76
2021/09/16 00:17:33;;;;;;;4.75;2.80;;;22.70;82.90;;;;;;5170193;28;20538;-75
2021/09/16 00:20:07;;;;;;;6.13;3.13;;;22.70;83.10;;;;;;5174744;28;20063;-76
2021/09/16 00:22:39;;;;;;;3.63;3.17;;;22.60;82.90;;;;;;5183115;28;20514;-76
2021/09/16 00:25:12;;;;;;;4.72;2.75;;;22.60;82.90;;;;;;5173688;28;20061;-76
2021/09/16 00:27:44;;;;;;;4.57;2.92;;;22.60;82.90;;;;;;5160133;28;20050;-76
2021/09/16 00:30:17;;;;;;;4.20;2.88;;;22.60;82.90;;;;;;5174401;28;20388;-76
2021/09/16 00:32:49;;;;;;;4.32;3.08;;;22.60;83.00;;;;;;5171524;28;20079;-77
2021/09/16 00:35:21;;;;;;;3.90;2.63;;;22.60;82.90;;;;;;5172056;28;20056;-76
2021/09/16 00:37:54;;;;;;;4.88;2.97;;;22.60;83.00;;;;;;5172356;28;20043;-77
2021/09/16 00:40:26;;;;;;;5.18;2.50;;;22.60;83.60;;;;;;5172374;28;20046;-76
2021/09/16 00:42:58;;;;;;;4.30;2.40;;;22.60;82.90;;;;;;5172707;28;20511;-76
2021/09/16 00:45:31;;;;;;;5.80;2.58;;;22.60;82.90;;;;;;5173733;28;20045;-76
2021/09/16 00:48:03;;;;;;;4.03;2.60;;;22.60;83.00;;;;;;5173599;28;20042;-76
2021/09/16 00:50:37;;;;;;;4.05;2.80;;;22.60;83.00;;;;;;5178447;28;20049;-76
2021/09/16 00:53:10;;;;;;;;;;;22.60;83.00;;;;;;5158462;28;20081;-76
2021/09/16 00:55:45;;;;;;;4.32;2.65;;;22.50;82.90;;;;;;5153921;28;20341;-76
2021/09/16 00:58:20;;;;;;;2.95;2.65;;;22.60;83.00;;;;;;5154399;28;20064;-75
2021/09/16 01:00:55;;;;;;;4.65;2.63;;;22.50;83.00;;;;;;5171715;28;20050;-76
2021/09/16 01:03:27;;;;;;;4.07;2.50;;;22.50;83.00;;;;;;5170931;28;20081;-76
2021/09/16 01:06:01;;;;;;;7.03;2.72;;;22.50;83.00;;;;;;5174198;28;20054;-76
2021/09/16 01:08:34;;;;;;;3.50;2.50;;;22.50;82.90;;;;;;5172830;28;20061;-76
2021/09/16 01:11:07;;;;;;;3.80;2.38;;;22.50;82.90;;;;;;5168702;28;20054;-76
2021/09/16 01:13:41;;;;;;;5.70;3.00;;;22.50;82.90;;;;;;5171382;28;24332;-76
2021/09/16 01:16:14;;;;;;;6.63;2.60;;;22.60;82.90;;;;;;5172224;28;20046;-73
2021/09/16 01:18:46;;;;;;;4.28;2.90;;;22.50;82.80;;;;;;5172448;28;20587;-75
2021/09/16 01:21:21;;;;;;;4.35;2.33;;;22.50;82.80;;;;;;5170590;28;20057;-76
2021/09/16 01:23:54;;;;;;;4.78;2.55;;;22.50;82.70;;;;;;5172015;28;20049;-76
2021/09/16 01:26:26;;;;;;;4.88;2.53;;;22.50;82.70;;;;;;5154894;28;20057;-75
2021/09/16 01:28:58;;;;;;;4.93;2.50;;;22.50;82.60;;;;;;5168830;28;20049;-75
2021/09/16 01:31:39;;;;;;;4.63;2.50;;;22.50;82.70;;;;;;5167327;28;20042;-77
2021/09/16 01:34:14;;;;;;;4.13;2.15;;;22.50;82.60;;;;;;5169032;28;20042;-76
2021/09/16 01:36:48;;;;;;;3.25;2.30;;;22.50;82.60;;;;;;5169181;28;20039;-76
2021/09/16 01:39:21;;;;;;;3.45;2.25;;;22.50;82.60;;;;;;5168382;28;20054;-76
2021/09/16 01:41:53;;;;;;;4.18;2.53;;;22.50;82.50;;;;;;5168983;28;20046;-76
2021/09/16 01:44:26;;;;;;;3.80;2.38;;;22.50;82.50;;;;;;5147949;28;22411;-77
2021/09/16 01:46:58;;;;;;;3.67;2.33;;;22.40;82.50;;;;;;5170560;28;20577;-76
2021/09/16 01:49:31;;;;;;;4.60;2.03;;;22.40;82.50;;;;;;5176547;28;20610;-76
2021/09/16 01:52:04;;;;;;;3.25;2.40;;;22.50;82.50;;;;;;5176561;28;20495;-76
2021/09/16 01:54:36;;;;;;;5.38;2.95;;;22.50;82.40;;;;;;5179582;28;20038;-76
2021/09/16 01:57:09;;;;;;;4.60;2.42;;;22.50;82.40;;;;;;5180342;28;20042;-76
2021/09/16 01:59:41;;;;;;;2.95;2.22;;;22.50;82.30;;;;;;5178686;28;20045;-77
2021/09/16 02:02:13;;;;;;;4.32;1.83;;;22.40;82.20;;;;;;5178070;28;20061;-76
2021/09/16 02:04:46;;;;;;;5.55;2.35;;;22.50;82.20;;;;;;5179610;28;20065;-76
2021/09/16 02:07:18;;;;;;;4.63;2.13;;;22.40;82.10;;;;;;5179218;28;20055;-76
2021/09/16 02:09:51;;;;;;;4.38;2.10;;;22.40;82.00;;;;;;5180806;28;20068;-77
2021/09/16 02:12:23;;;;;;;4.10;2.25;;;22.40;82.00;;;;;;5163655;28;20495;-78
2021/09/16 02:14:56;;;;;;;4.97;2.40;;;22.40;82.00;;;;;;5181069;28;20084;-77
2021/09/16 02:17:28;;;;;;;3.05;1.77;;;22.40;82.00;;;;;;5179492;28;20057;-75
2021/09/16 02:20:01;;;;;;;2.97;2.20;;;22.40;82.00;;;;;;5179245;28;20049;-77
2021/09/16 02:22:34;;;;;;;3.05;2.55;;;22.40;82.10;;;;;;5180143;28;20300;-76
2021/09/16 02:25:07;;;;;;;4.47;2.40;;;22.40;81.90;;;;;;5178996;28;20058;-75
2021/09/16 02:27:39;;;;;;;5.10;2.40;;;22.40;82.00;;;;;;5178746;28;20078;-76
2021/09/16 02:30:13;;;;;;;5.22;2.60;;;22.40;81.90;;;;;;5179707;28;20299;-76
2021/09/16 02:32:46;;;;;;;3.55;2.03;;;22.40;81.80;;;;;;5180100;28;20049;-76
2021/09/16 02:35:18;;;;;;;4.90;2.20;;;22.40;81.70;;;;;;5179208;28;20057;-76
2021/09/16 02:37:50;;;;;;;2.83;2.00;;;22.40;81.80;;;;;;5180227;28;20061;-76
2021/09/16 02:40:23;;;;;;;6.55;2.17;;;22.40;81.70;;;;;;5180153;28;20050;-76
2021/09/16 02:42:55;;;;;;;4.93;2.00;;;22.40;81.70;;;;;;5178428;28;20500;-76
2021/09/16 02:45:28;;;;;;;5.88;2.22;;;22.40;81.70;;;;;;5172376;28;20061;-76
2021/09/16 02:48:00;;;;;;;5.00;2.25;;;22.30;81.60;;;;;;5178431;28;20057;-76
2021/09/16 02:50:33;;;;;;;6.38;2.40;;;22.30;81.60;;;;;;5163569;28;20613;-76
2021/09/16 02:53:05;;;;;;;3.28;2.35;;;22.30;81.60;;;;;;5179054;28;20045;-76
2021/09/16 02:55:37;;;;;;;4.45;2.45;;;22.30;81.60;;;;;;5178690;28;20057;-76
2021/09/16 02:58:10;;;;;;;5.22;2.20;;;22.30;81.60;;;;;;5178999;28;20046;-77
2021/09/16 03:00:42;;;;;;;3.40;2.47;;;22.30;81.60;;;;;;5178614;28;20050;-76
2021/09/16 03:03:14;;;;;;;5.97;2.65;;;22.30;81.50;;;;;;5176248;28;20050;-76
2021/09/16 03:05:47;;;;;;;6.55;2.63;;;22.30;81.60;;;;;;5177879;28;20049;-76
2021/09/16 03:08:19;;;;;;;5.05;1.98;;;22.30;81.60;;;;;;5178637;28;20507;-76
2021/09/16 03:10:51;;;;;;;7.50;2.33;;;22.20;81.50;;;;;;5178197;28;20092;-76
2021/09/16 03:13:24;;;;;;;3.60;2.10;;;22.20;81.50;;;;;;5176480;28;20053;-76
2021/09/16 03:15:56;;;;;;;3.42;2.25;;;22.30;81.50;;;;;;5179976;28;20918;-76
2021/09/16 03:18:28;;;;;;;3.45;2.38;;;22.20;81.40;;;;;;5178402;28;20298;-75
2021/09/16 03:21:01;;;;;;;4.75;2.50;;;22.20;81.40;;;;;;5160210;28;20061;-75
2021/09/16 03:23:33;;;;;;;5.63;2.50;;;22.20;81.40;;;;;;5177698;28;20061;-75
2021/09/16 03:26:06;;;;;;;3.65;2.28;;;22.20;81.40;;;;;;5177816;28;20526;-76
2021/09/16 03:28:40;;;;;;;5.60;2.63;;;22.20;81.40;;;;;;5176962;28;20042;-76
2021/09/16 03:31:12;;;;;;;4.38;2.45;;;22.20;81.40;;;;;;5178000;28;20045;-76
2021/09/16 03:33:45;;;;;;;2.60;2.20;;;22.20;82.00;;;;;;5177749;28;20061;-76
2021/09/16 03:36:17;;;;;;;3.03;2.13;;;22.20;81.30;;;;;;5179538;28;20057;-76
2021/09/16 03:38:50;;;;;;;5.25;2.40;;;22.20;81.40;;;;;;5182788;28;20065;-75
2021/09/16 03:41:22;;;;;;;4.00;2.33;;;22.20;81.30;;;;;;5175706;28;20372;-75
2021/09/16 03:43:54;;;;;;;5.85;2.60;;;22.20;81.40;;;;;;5182895;28;20045;-75
2021/09/16 03:46:27;;;;;;;4.05;2.60;;;22.20;81.40;;;;;;5181878;28;20050;-76
2021/09/16 03:48:59;;;;;;;7.72;2.30;;;22.20;81.40;;;;;;5181040;28;20058;-76
2021/09/16 03:51:31;;;;;;;5.10;2.35;;;22.20;81.40;;;;;;5180470;28;20049;-76
2021/09/16 03:54:04;;;;;;;2.72;2.33;;;22.20;81.50;;;;;;5180952;28;20053;-75
2021/09/16 03:56:36;;;;;;;5.85;2.72;;;22.20;81.50;;;;;;5180033;28;20053;-75
2021/09/16 03:59:08;;;;;;;2.78;2.15;;;22.20;81.60;;;;;;5152985;28;20547;-75
2021/09/16 04:01:41;;;;;;;3.50;2.33;;;22.10;81.40;;;;;;5178011;28;20045;-74
2021/09/16 04:04:13;;;;;;;5.57;2.38;;;22.10;81.30;;;;;;5179403;28;20474;-75
2021/09/16 04:06:45;;;;;;;4.20;2.60;;;22.10;81.20;;;;;;5177328;28;20058;-74
2021/09/16 04:09:18;;;;;;;8.55;2.60;;;22.10;81.20;;;;;;5179014;28;20057;-75
2021/09/16 04:11:50;;;;;;;3.47;2.00;;;22.10;81.10;;;;;;5177138;28;20042;-74
2021/09/16 04:14:23;;;;;;;6.28;2.15;;;22.10;81.10;;;;;;5161820;28;20045;-76
2021/09/16 04:16:55;;;;;;;6.43;2.30;;;22.10;81.20;;;;;;5175841;28;20049;-75
2021/09/16 04:19:28;;;;;;;4.68;2.45;;;22.10;81.20;;;;;;5179065;28;20053;-74
2021/09/16 04:22:00;;;;;;;4.90;2.67;;;22.10;81.30;;;;;;5166716;28;20064;-75
2021/09/16 04:24:33;;;;;;;5.30;2.17;;;22.10;81.30;;;;;;5165030;28;20037;-75
2021/09/16 04:27:05;;;;;;;5.57;2.10;;;22.10;81.40;;;;;;5176738;28;20475;-75
2021/09/16 04:29:38;;;;;;;3.60;2.40;;;22.20;81.40;;;;;;5168647;28;26239;-74
2021/09/16 04:32:10;;;;;;;7.60;2.78;;;22.20;81.40;;;;;;5162853;28;20038;-74
2021/09/16 04:34:43;;;;;;;3.22;1.90;;;22.20;81.40;;;;;;5162030;28;20552;-74
2021/09/16 04:37:18;;;;;;;2.78;2.30;;;22.20;81.30;;;;;;5158362;28;20050;-71
2021/09/16 04:39:51;;;;;;;3.88;2.60;;;22.30;81.90;;;;;;5164431;28;20531;-76
2021/09/16 04:42:23;;;;;;;2.95;2.20;;;22.20;81.20;;;;;;5191014;28;20058;-75
2021/09/16 04:44:56;;;;;;;2.75;2.00;;;22.30;81.10;;;;;;5172257;28;20522;-77
2021/09/16 04:47:28;;;;;;;4.13;2.25;;;22.30;81.00;;;;;;5150652;28;20050;-75
2021/09/16 04:50:02;;;;;;;3.30;2.55;;;22.30;81.00;;;;;;5168110;28;20061;-75
2021/09/16 04:52:34;;;;;;;8.48;2.67;;;22.30;81.00;;;;;;5180210;28;20046;-75
2021/09/16 04:55:07;;;;;;;7.20;2.63;;;22.40;81.70;;;;;;5194239;28;20048;-75
2021/09/16 04:57:40;;;;;;;7.32;2.58;;;22.40;81.80;;;;;;5179661;28;20515;-75
2021/09/16 05:00:13;;;;;;;13.00;2.53;;;22.40;81.80;;;;;;5175039;28;20041;-74
2021/09/16 05:02:45;;;;;;;8.43;2.55;;;22.40;81.80;;;;;;5163253;28;20050;-73
2021/09/16 05:05:18;;;;;;;10.90;2.95;;;22.40;81.70;;;;;;5158474;28;20061;-74
2021/09/16 05:07:50;;;;;;;7.47;2.50;;;22.50;81.70;;;;;;5161859;28;20070;-74
2021/09/16 05:10:22;;;;;;;7.47;2.53;;;22.40;81.70;;;;;;5155448;28;20053;-74
2021/09/16 05:12:55;;;;;;;9.88;2.40;;;22.50;81.40;;;;;;5159390;28;20456;-75
2021/09/16 05:15:27;;;;;;;17.77;2.80;;;22.50;81.20;;;;;;5158443;28;21039;-75
2021/09/16 05:17:59;;;;;;;9.40;2.70;;;22.50;81.30;;;;;;5161440;28;20080;-75
2021/09/16 05:20:32;;;;;;;15.55;2.58;;;22.50;81.30;;;;;;5165945;28;20509;-74
2021/09/16 05:23:04;;;;;;;12.13;2.70;;;22.50;81.30;;;;;;5169216;28;20411;-75
2021/09/16 05:25:36;;;;;;;7.20;3.08;;;22.50;81.30;;;;;;5170171;28;20072;-75
2021/09/16 05:28:09;;;;;;;5.97;2.58;;;22.50;81.30;;;;;;5154624;28;20622;-75
2021/09/16 05:30:41;;;;;;;7.70;2.65;;;22.50;81.20;;;;;;5163869;28;20428;-75
2021/09/16 05:33:14;;;;;;;11.27;2.50;;;22.50;81.30;;;;;;5158892;28;20056;-75
2021/09/16 05:35:46;;;;;;;10.38;3.08;;;22.50;81.10;;;;;;5155546;28;20496;-75
2021/09/16 05:38:19;;;;;;;6.28;2.40;;;22.50;81.10;;;;;;5162798;28;20049;-75
2021/09/16 05:40:51;;;;;;;8.10;2.70;;;22.50;81.00;;;;;;5165034;28;20049;-75
2021/09/16 05:43:23;;;;;;;5.88;2.78;;;22.50;81.10;;;;;;5149230;28;20055;-75
2021/09/16 05:45:56;;;;;;;9.98;2.88;;;22.50;81.00;;;;;;5146790;28;20412;-74
2021/09/16 05:48:28;;;;;;;7.95;2.80;;;22.50;80.90;;;;;;5146974;28;20060;-75
2021/09/16 05:51:00;;;;;;;6.93;2.47;;;22.50;80.90;;;;;;5166953;28;20499;-75
2021/09/16 05:53:33;;;;;;;9.55;2.60;;;22.50;80.80;;;;;;5166672;28;20050;-74
2021/09/16 05:56:05;;;;;;;7.45;2.97;;;22.60;80.80;;;;;;5168880;28;20042;-75
2021/09/16 05:58:37;;;;;;;5.45;2.22;;;22.60;80.80;;;;;;5169842;28;20048;-74
2021/09/16 06:01:10;;;;;;;6.28;2.67;;;22.60;80.70;;;;;;5166176;28;20396;-75
2021/09/16 06:03:43;;;;;;;8.97;2.90;;;22.60;80.60;;;;;;5148910;28;20058;-75
2021/09/16 06:06:15;;;;;;;7.35;2.58;;;22.60;80.70;;;;;;5168609;28;20301;-75
2021/09/16 06:08:52;;;;;;;7.57;2.30;;;22.60;80.60;;;;;;5165700;28;20053;-74
2021/09/16 06:11:25;;;;;;;8.50;2.50;;;22.60;80.60;;;;;;5168694;28;20057;-74
2021/09/16 06:13:57;;;;;;;5.50;2.85;;;22.60;80.60;;;;;;5166559;28;20483;-75
2021/09/16 06:16:30;;;;;;;6.13;2.60;;;22.60;80.50;;;;;;5131490;28;20419;-73
2021/09/16 06:19:02;;;;;;;4.68;2.42;;;22.60;80.40;;;;;;5168604;28;20045;-75
2021/09/16 06:21:34;;;;;;;5.18;2.55;;;22.60;80.40;;;;;;5168711;28;20049;-75
2021/09/16 06:24:07;;;;;;;5.38;2.60;;;22.60;80.40;;;;;;5149535;28;20046;-75
2021/09/16 06:26:40;;;;;;;4.83;2.53;;;22.70;80.60;;;;;;5168411;28;20057;-75
2021/09/16 06:29:12;;;;;;;6.40;2.42;;;22.70;80.50;;;;;;5147101;28;20307;-75
2021/09/16 06:31:44;;;;;;;4.35;2.20;;;22.70;80.50;;;;;;5145698;28;20050;-75
2021/09/16 06:34:17;;;;;;;8.85;2.47;;;22.70;80.50;;;;;;5168280;28;20061;-74
2021/09/16 06:36:49;;;;;;;3.08;2.15;;;22.70;80.50;;;;;;5130212;28;20050;-74
2021/09/16 06:39:22;;;;;;;3.85;2.10;;;22.70;80.50;;;;;;5149300;28;20522;-75
2021/09/16 06:41:54;;;;;;;4.00;2.25;;;22.70;80.50;;;;;;5169537;28;20062;-75
2021/09/16 06:44:27;;;;;;;4.57;2.33;;;22.70;80.40;;;;;;5171479;28;20065;-75
2021/09/16 06:46:59;;;;;;;4.47;2.20;;;22.70;80.50;;;;;;5166113;28;20054;-75
2021/09/16 06:49:36;;;;;;;4.22;2.17;;;22.70;80.40;;;;;;5167368;28;20057;-74
2021/09/16 06:52:08;;;;;;;5.45;2.45;;;22.70;80.40;;;;;;5158658;28;20491;-74
2021/09/16 06:54:41;;;;;;;7.22;2.90;;;22.70;80.40;;;;;;5171198;28;20042;-74
2021/09/16 06:57:13;;;;;;;7.80;2.40;;;22.70;80.50;;;;;;5168705;28;20069;-74
2021/09/16 06:59:46;;;;;;;4.72;2.63;;;22.70;80.50;;;;;;5172113;28;20057;-75
2021/09/16 07:02:18;;;;;;;4.82;2.35;;;22.70;80.50;;;;;;5168485;28;20037;-75
2021/09/16 07:04:51;;;;;;;3.77;2.30;;;22.70;80.40;;;;;;5163629;28;20054;-74
2021/09/16 07:07:24;;;;;;;3.40;2.70;;;22.80;80.50;;;;;;5170331;28;20296;-75
2021/09/16 07:09:57;;;;;;;4.88;2.13;;;22.70;80.40;;;;;;5139920;28;20049;-75
2021/09/16 07:12:35;;;;;;;7.97;2.33;;;22.70;80.40;;;;;;5161821;28;20541;-76
2021/09/16 07:15:08;;;;;;;6.03;2.28;;;22.70;80.40;;;;;;5159813;28;20049;-74
2021/09/16 07:17:41;;;;;;;2.95;2.08;;;22.80;80.50;;;;;;5160115;28;20054;-75
2021/09/16 07:20:14;;;;;;;6.93;2.40;;;22.80;80.40;;;;;;5152577;28;20045;-73
2021/09/16 07:22:46;;;;;;;3.97;2.38;;;22.80;80.60;;;;;;5151752;28;20998;-75
2021/09/16 07:25:18;;;;;;;4.75;2.35;;;22.70;80.60;;;;;;5156781;28;20058;-76
2021/09/16 07:27:51;;;;;;;3.55;2.35;;;22.80;80.60;;;;;;5158906;28;20057;-75
2021/09/16 07:30:23;;;;;;;5.78;2.40;;;22.80;80.60;;;;;;5161468;28;20380;-75
2021/09/16 07:32:56;;;;;;;6.25;2.63;;;22.80;80.60;;;;;;5162908;28;20060;-75
2021/09/16 07:35:28;;;;;;;7.47;2.33;;;22.80;80.70;;;;;;5132862;28;20424;-75
2021/09/16 07:38:00;;;;;;;6.13;2.60;;;22.80;80.70;;;;;;5158878;28;20439;-75
2021/09/16 07:40:33;;;;;;;6.65;2.28;;;22.80;80.70;;;;;;5138783;28;20111;-75
2021/09/16 07:43:05;;;;;;;5.20;2.80;;;22.80;80.70;;;;;;5140820;28;20062;-75
2021/09/16 07:45:38;;;;;;;6.57;2.75;;;22.80;80.70;;;;;;5154622;28;20396;-75
2021/09/16 07:48:10;;;;;;;3.28;2.40;;;22.80;80.80;;;;;;5160655;28;20038;-75
2021/09/16 07:50:43;;;;;;;4.00;2.65;;;22.80;80.80;;;;;;5158705;28;20419;-75
2021/09/16 07:53:15;;;;;;;7.05;2.70;;;22.80;80.80;;;;;;5148725;28;20080;-75
2021/09/16 07:55:48;;;;;;;8.85;2.58;;;22.80;80.80;;;;;;5149366;28;20357;-74
2021/09/16 07:58:25;;;;;;;6.68;2.58;;;22.90;80.80;;;;;;5127614;28;20717;-75
2021/09/16 08:00:58;;;;;;;7.63;2.97;;;22.90;80.80;;;;;;5139408;28;20042;-75
2021/09/16 08:03:30;;;;;;;7.03;2.80;;;22.80;80.70;;;;;;5146733;28;20527;-75
2021/09/16 08:06:03;;;;;;;6.43;2.63;;;22.90;80.80;;;;;;5155233;28;20072;-74
2021/09/16 08:08:36;;;;;;;4.95;2.92;;;22.90;80.90;;;;;;5153969;28;20308;-75
2021/09/16 08:11:08;;;;;;;4.40;2.60;;;22.90;81.00;;;;;;5154665;28;20053;-75
2021/09/16 08:13:41;;;;;;;6.18;2.50;;;22.80;81.00;;;;;;5159181;28;20046;-73
2021/09/16 08:16:13;;;;;;;6.30;2.53;;;22.80;81.10;;;;;;5147792;28;20810;-74
2021/09/16 08:18:46;;;;;;;8.77;2.33;;;22.90;81.20;;;;;;5139647;28;20050;-74
2021/09/16 08:21:19;;;;;;;8.85;2.63;;;22.90;81.20;;;;;;5161785;28;20041;-75
2021/09/16 08:23:51;;;;;;;4.55;2.70;;;22.90;81.40;;;;;;5137595;28;21168;-75
2021/09/16 08:26:24;;;;;;;4.53;2.58;;;22.90;81.40;;;;;;5160085;28;20060;-74
2021/09/16 08:28:56;;;;;;;8.57;2.72;;;22.90;81.60;;;;;;5153430;28;20049;-75
2021/09/16 08:31:29;;;;;;;4.43;2.67;;;22.90;81.50;;;;;;5135374;28;20918;-75
2021/09/16 08:34:01;;;;;;;5.27;2.90;;;22.90;81.50;;;;;;5164880;28;20049;-76
2021/09/16 08:36:34;;;;;;;8.70;2.90;;;22.90;81.50;;;;;;5157889;28;20492;-75
2021/09/16 08:39:07;;;;;;;6.78;2.45;;;22.90;82.10;;;;;;5148239;28;20193;-75
2021/09/16 08:41:42;;;;;;;4.78;2.35;;;22.90;81.30;;;;;;5152653;28;20053;-74
2021/09/16 08:44:18;;;;;;;5.82;2.90;;;22.90;81.50;;;;;;5142094;28;20046;-75
2021/09/16 08:46:50;;;;;;;6.78;2.45;;;22.90;81.60;;;;;;5157146;28;20553;-75
2021/09/16 08:49:23;;;;;;;3.90;2.40;;;22.90;81.40;;;;;;5152919;28;20435;-75
2021/09/16 08:51:55;;;;;;;4.05;2.75;;;22.90;81.40;;;;;;5156096;28;20061;-74
2021/09/16 08:54:29;;;;;;;6.82;2.78;;;22.90;81.30;;;;;;5156188;28;20061;-75
2021/09/16 08:57:02;;;;;;;4.35;2.65;;;22.90;81.20;;;;;;5160253;28;20053;-74
2021/09/16 08:59:35;;;;;;;5.50;2.83;;;22.90;81.20;;;;;;5152775;28;21287;-75
2021/09/16 09:02:08;;;;;;;8.93;2.97;;;22.90;81.10;;;;;;5157366;28;20053;-76
2021/09/16 09:04:41;;;;;;;5.20;2.65;;;22.90;81.20;;;;;;5148916;28;20046;-75
2021/09/16 09:07:19;;;;;;;8.25;2.97;;;22.90;81.20;;;;;;5153627;28;20312;-74
2021/09/16 09:09:51;;;;;;;8.13;2.90;;;22.90;81.20;;;;;;5127239;28;20427;-74
2021/09/16 09:12:23;;;;;;;6.00;3.28;;;22.90;81.20;;;;;;5132232;28;20068;-75
2021/09/16 09:14:56;;;;;;;6.15;2.88;;;22.90;81.30;;;;;;5107184;28;20063;-75
2021/09/16 09:17:31;;;;;;;7.80;2.80;;;23.00;81.30;;;;;;5128319;28;20049;-75
2021/09/16 09:20:08;;;;;;;6.57;3.08;;;22.90;81.80;;;;;;5151287;28;20046;-74
2021/09/16 09:22:41;;;;;;;4.53;2.67;;;22.90;81.20;;;;;;5150866;28;20057;-76
2021/09/16 09:25:14;;;;;;;9.57;2.88;;;22.90;81.40;;;;;;5150097;28;20616;-75
2021/09/16 09:27:49;;;;;;;6.68;3.00;;;22.90;81.40;;;;;;5149316;28;20503;-74
2021/09/16 09:30:27;;;;;;;6.75;2.72;;;23.00;81.40;;;;;;5148929;28;20050;-76
2021/09/16 09:33:05;;;;;;;6.15;2.72;;;23.00;81.40;;;;;;5153541;28;20053;-75
2021/09/16 09:35:43;;;;;;;5.40;2.65;;;23.00;82.00;;;;;;5152246;28;20057;-76
2021/09/16 09:38:18;;;;;;;9.60;2.70;;;23.00;81.40;;;;;;5151248;28;20050;-75
2021/09/16 09:40:56;;;;;;;5.07;2.60;;;23.00;81.50;;;;;;5150157;28;20305;-75
2021/09/16 09:43:34;;;;;;;6.72;2.88;;;23.00;81.50;;;;;;5148799;28;20038;-75
2021/09/16 09:46:12;;;;;;;6.95;3.10;;;23.00;81.60;;;;;;5150038;28;20546;-75
2021/09/16 09:49:04;;;;;;;9.95;3.40;;;23.00;81.60;;;;;;5156990;28;20050;-76
2021/09/16 09:51:57;;;;;;;11.52;3.35;;;23.00;81.40;;;;;;5153958;28;20526;-75
2021/09/16 09:54:38;;;;;;;11.10;3.90;;;23.00;81.60;;;;;;5155264;28;20279;-74
2021/09/16 09:57:15;;;;;;;10.23;3.92;;;23.00;81.70;;;;;;5158443;28;20048;-74
2021/09/16 09:59:55;;;;;;;10.13;4.13;;;23.00;81.70;;;;;;4463010;28;10000199;-75
2021/09/16 10:02:30;;;;;;;14.93;4.10;;;23.00;81.60;;;;;;5132487;28;20500;-75
2021/09/16 10:05:04;;;;;;;8.90;3.40;;;23.00;81.80;;;;;;5142357;28;20046;-75
2021/09/16 10:07:38;;;;;;;8.88;4.15;;;23.00;81.80;;;;;;5163519;28;20061;-75
2021/09/16 10:10:13;;;;;;;9.32;3.95;;;23.00;81.80;;;;;;5156812;28;20045;-75
2021/09/16 10:12:47;;;;;;;9.30;3.80;;;23.00;81.90;;;;;;5126285;28;20046;-75
2021/09/16 10:15:22;;;;;;;9.07;4.15;;;23.00;81.90;;;;;;5165045;28;20689;-75
2021/09/16 10:17:55;;;;;;;8.77;3.90;;;23.00;82.00;;;;;;5160222;28;20651;-75
2021/09/16 10:20:28;;;;;;;10.90;3.80;;;23.00;82.00;;;;;;5131256;28;20494;-74
2021/09/16 10:23:08;;;;;;;9.23;3.47;;;23.00;82.00;;;;;;5153506;28;20046;-75
2021/09/16 10:25:48;;;;;;;8.65;4.05;;;23.00;82.00;;;;;;5118277;28;20054;-76
2021/09/16 10:28:21;;;;;;;12.27;3.70;;;23.00;82.10;;;;;;5154009;28;20186;-75
2021/09/16 10:30:54;;;;;;;7.75;3.47;;;23.00;82.10;;;;;;5155826;28;20054;-75
2021/09/16 10:33:28;;;;;;;9.50;3.50;;;23.00;82.00;;;;;;5157316;28;20176;-75
2021/09/16 10:36:05;;;;;;;10.32;3.70;;;23.00;82.10;;;;;;5141187;28;20499;-75
2021/09/16 10:38:39;;;;;;;6.90;3.83;;;23.00;82.10;;;;;;5157914;28;20332;-75
2021/09/16 10:41:23;;;;;;;8.35;3.65;;;23.00;82.40;;;;;;5157767;28;20050;-75
2021/09/16 10:43:58;;;;;;;10.93;3.90;;;23.00;82.30;;;;;;5159039;28;20068;-75
2021/09/16 10:46:36;;;;;;;11.70;4.50;;;23.00;82.30;;;;;;5129207;28;20058;-75
2021/09/16 10:49:21;;;;;;;9.88;3.85;;;23.00;82.40;;;;;;5167762;28;20412;-74
2021/09/16 10:52:10;;;;;;;9.40;3.53;;;23.00;82.30;;;;;;5169266;28;20056;-75
2021/09/16 10:54:45;;;;;;;6.68;3.88;;;23.00;82.30;;;;;;5170160;28;20038;-76
2021/09/16 10:57:19;;;;;;;11.38;4.15;;;23.00;82.30;;;;;;5168749;28;20050;-74
2021/09/16 11:00:16;;;;;;;6.90;3.65;;;23.00;82.30;;;;;;5214437;28;20482;-57
2021/09/16 11:03:02;;;;;;;8.00;3.95;;;23.00;82.30;;;;;;5207289;28;20510;-61
2021/09/16 11:05:50;;;;;;;12.30;4.07;;;23.00;82.30;;;;;;5215680;28;20489;-55
2021/09/16 11:08:58;;;;;;;8.75;3.63;;;23.00;82.30;;;;;;5180841;28;20495;-58
2021/09/16 11:11:50;;;;;;;10.10;3.97;;;23.00;82.10;;;;;;5202064;28;20064;-58
2021/09/16 11:14:31;;;;;;;8.35;3.80;;;23.00;82.10;;;;;;5200022;28;20045;-61
2021/09/16 11:17:05;;;;;;;6.30;3.10;;;23.00;82.10;;;;;;5202260;28;20041;-58
2021/09/16 11:19:48;;;;;;;6.85;3.20;;;23.00;82.10;;;;;;5254268;27;20523;-56
2021/09/16 11:22:31;;;;;;;8.30;3.55;;;23.00;82.00;;;;;;5272229;27;20495;-59
2021/09/16 11:25:14;;;;;;;6.82;3.67;;;23.00;82.00;;;;;;5225206;27;20438;-60
2021/09/16 11:27:57;;;;;;;8.07;3.22;;;23.00;81.90;;;;;;5241177;27;21020;-59
2021/09/16 11:30:43;;;;;;;8.05;3.88;;;23.10;81.90;;;;;;5259183;27;20971;-57
2021/09/16 11:33:26;;;;;;;6.35;3.08;;;23.00;81.80;;;;;;5200844;28;21268;-60
2021/09/16 11:36:09;;;;;;;7.22;3.55;;;23.00;81.70;;;;;;5255284;27;20511;-58
2021/09/16 11:39:12;;;;;;;8.27;3.15;;;23.10;81.80;;;;;;5234386;27;20496;-61
2021/09/16 11:42:15;;;;;;;8.80;3.42;;;23.10;81.70;;;;;;5228968;27;20494;-58
2021/09/16 11:45:00;;;;;;;9.20;2.95;;;23.10;81.80;;;;;;5200723;27;20075;-59
2021/09/16 11:48:20;;;;;;;10.05;3.60;;;23.00;81.80;;;;;;5228524;27;20511;-58
2021/09/16 11:51:04;;;;;;;5.88;3.53;;;23.10;81.90;;;;;;5235318;27;20413;-58
2021/09/16 11:53:47;;;;;;;5.72;3.38;;;23.10;81.90;;;;;;5232595;27;20500;-60
2021/09/16 11:56:42;;;;;;;8.57;3.35;;;23.10;81.90;;;;;;5216186;28;20501;-57
2021/09/16 11:59:27;;;;;;;5.13;3.13;;;23.10;82.50;;;;;;5227905;27;20489;-57
2021/09/16 12:02:10;;;;;;;8.82;3.00;;;23.10;81.70;;;;;;5249977;27;20508;-58
2021/09/16 12:04:53;;;;;;;8.82;3.53;;;23.20;81.70;;;;;;5211834;27;20507;-60
2021/09/16 12:07:36;;;;;;;5.95;3.15;;;23.10;81.50;;;;;;5186351;28;20536;-60
2021/09/16 12:10:20;;;;;;;7.68;3.80;;;23.20;81.60;;;;;;5252255;27;20487;-59
2021/09/16 12:13:04;;;;;;;13.57;3.53;;;23.20;81.60;;;;;;5217346;28;20499;-58
2021/09/16 12:16:07;;;;;;;11.75;3.85;;;23.20;81.80;;;;;;4867075;27;10000656;-59
2021/09/16 12:18:59;;;;;;;11.88;3.80;;;23.20;81.80;;;;;;5234741;27;20511;-59
2021/09/16 12:21:51;;;;;;;9.43;3.38;;;23.20;82.60;;;;;;5232828;28;20540;-61
2021/09/16 12:24:36;;;;;;;5.45;3.33;;;23.20;82.00;;;;;;5210481;28;20515;-58
2021/09/16 12:27:19;;;;;;;7.10;3.33;;;23.30;81.90;;;;;;5245947;27;20500;-56
2021/09/16 12:30:19;;;;;;;5.90;3.20;;;23.30;82.00;;;;;;5236220;27;20549;-58
2021/09/16 12:33:23;;;;;;;8.07;3.40;;;23.30;81.90;;;;;;5205516;28;20918;-59
2021/09/16 12:36:25;;;;;;;6.68;3.15;;;23.30;82.00;;;;;;5262310;27;20882;-59
2021/09/16 12:39:13;;;;;;;9.95;3.20;;;23.40;81.90;;;;;;5242110;28;20128;-56
2021/09/16 12:42:01;;;;;;;9.50;3.08;;;23.40;81.90;;;;;;5202402;28;20539;-58
2021/09/16 12:44:44;;;;;;;6.03;3.50;;;23.50;82.00;;;;;;4171640;27;10001560;-61
2021/09/16 12:47:28;;;;;;;8.93;3.15;;;23.50;82.00;;;;;;5248970;27;21123;-58
2021/09/16 12:50:12;;;;;;;7.07;2.97;;;23.50;81.80;;;;;;5226679;27;21016;-59
2021/09/16 12:53:00;;;;;;;10.15;4.38;;;23.60;81.60;;;;;;5200650;28;20574;-69
2021/09/16 12:55:44;;;;;;;6.22;3.15;;;23.60;81.50;;;;;;5209911;27;20496;-60
2021/09/16 12:58:30;;;;;;;8.85;3.08;;;23.70;81.40;;;;;;5205982;28;20506;-59
2021/09/16 13:01:13;;;;;;;8.70;3.15;;;23.80;81.10;;;;;;5182182;28;20504;-57
2021/09/16 13:04:05;;;;;;;12.38;3.38;;;23.80;80.80;;;;;;5229675;27;20529;-58
2021/09/16 13:06:49;;;;;;;7.65;2.75;;;23.80;80.80;;;;;;5216244;28;20460;-59
2021/09/16 13:09:34;;;;;;;7.20;3.08;;;23.80;81.10;;;;;;5192033;28;20499;-59
2021/09/16 13:12:18;;;;;;;5.85;2.92;;;23.90;81.00;;;;;;5198629;28;21015;-59
2021/09/16 13:15:01;;;;;;;7.22;3.03;;;23.90;80.80;;;;;;5229255;27;20987;-58
2021/09/16 13:17:44;;;;;;;5.50;2.70;;;23.90;80.70;;;;;;5170789;28;20524;-58
2021/09/16 13:20:28;;;;;;;14.82;3.75;;;23.90;80.80;;;;;;5204425;28;20576;-60
2021/09/16 13:23:14;;;;;;;6.03;3.03;;;24.00;80.80;;;;;;5251935;27;20898;-56
2021/09/16 13:25:57;;;;;;;4.90;2.90;;;24.00;80.70;;;;;;5244989;27;20507;-58
2021/09/16 13:28:41;;;;;;;8.02;3.03;;;24.00;80.60;;;;;;5206318;28;20499;-58
2021/09/16 13:31:25;;;;;;;9.82;3.20;;;24.00;80.50;;;;;;5255147;27;21083;-58